sensor_id;sensor_type;location;lat;lon;timestamp;temperature;humidity
47350;DHT22;33088;51.982;5.872;2022-11-15T00:01:54;7.30;99.90
47350;DHT22;33088;51.982;5.872;2022-11-15T00:04:38;7.30;99.90
47350;DHT22;33088;51.982;5.872;2022-11-15T00:07:23;7.50;99.90
47350;DHT22;33088;51.982;5.872;2022-11-15T00:10:07;7.40;99.90
47350;DHT22;33088;51.982;5.872;2022-11-15T00:12:51;7.40;99.90
47350;DHT22;33088;51.982;5.872;2022-11-15T00:15:40;7.40;99.90
47350;DHT22;33088;51.982;5.872;2022-11-15T00:18:25;7.40;99.90
47350;DHT22;33088;51.982;5.872;2022-11-15T00:21:12;7.40;99.90
47350;DHT22;33088;51.982;5.872;2022-11-15T00:23:57;7.60;99.90
47350;DHT22;33088;51.982;5.872;2022-11-15T00:26:42;7.40;99.90
47350;DHT22;33088;51.982;5.872;2022-11-15T00:29:26;7.50;99.90
47350;DHT22;33088;51.982;5.872;2022-11-15T00:32:10;7.50;99.90
47350;DHT22;33088;51.982;5.872;2022-11-15T00:34:54;7.50;99.90
47350;DHT22;33088;51.982;5.872;2022-11-15T00:37:38;7.50;99.90
47350;DHT22;33088;51.982;5.872;2022-11-15T00:40:22;7.50;99.90
47350;DHT22;33088;51.982;5.872;2022-11-15T00:43:07;7.50;99.90
47350;DHT22;33088;51.982;5.872;2022-11-15T00:45:51;7.50;99.90
47350;DHT22;33088;51.982;5.872;2022-11-15T00:48:36;7.40;99.90
47350;DHT22;33088;51.982;5.872;2022-11-15T00:51:20;7.60;99.90
47350;DHT22;33088;51.982;5.872;2022-11-15T00:54:04;7.50;99.90
47350;DHT22;33088;51.982;5.872;2022-11-15T00:56:48;7.50;99.90
47350;DHT22;33088;51.982;5.872;2022-11-15T00:59:32;7.40;99.90
47350;DHT22;33088;51.982;5.872;2022-11-15T01:02:17;7.50;99.90
47350;DHT22;33088;51.982;5.872;2022-11-15T01:05:01;7.50;99.90
47350;DHT22;33088;51.982;5.872;2022-11-15T01:07:46;7.50;99.90
47350;DHT22;33088;51.982;5.872;2022-11-15T01:10:30;7.50;99.90
47350;DHT22;33088;51.982;5.872;2022-11-15T01:13:14;7.50;99.90
47350;DHT22;33088;51.982;5.872;2022-11-15T01:15:58;7.50;99.90
47350;DHT22;33088;51.982;5.872;2022-11-15T01:18:42;7.50;99.90
47350;DHT22;33088;51.982;5.872;2022-11-15T01:21:27;7.50;99.90
47350;DHT22;33088;51.982;5.872;2022-11-15T01:24:12;7.40;99.90
47350;DHT22;33088;51.982;5.872;2022-11-15T01:26:56;7.60;99.90
47350;DHT22;33088;51.982;5.872;2022-11-15T01:29:40;7.60;99.90
47350;DHT22;33088;51.982;5.872;2022-11-15T01:32:24;7.60;99.90
47350;DHT22;33088;51.982;5.872;2022-11-15T01:35:08;7.60;99.90
47350;DHT22;33088;51.982;5.872;2022-11-15T01:37:52;7.70;99.90
47350;DHT22;33088;51.982;5.872;2022-11-15T01:40:36;7.60;99.90
47350;DHT22;33088;51.982;5.872;2022-11-15T01:49:19;7.70;99.90
47350;DHT22;33088;51.982;5.872;2022-11-15T01:52:09;7.70;99.90
47350;DHT22;33088;51.982;5.872;2022-11-15T01:55:07;7.80;99.90
47350;DHT22;33088;51.982;5.872;2022-11-15T01:57:57;7.80;99.90
47350;DHT22;33088;51.982;5.872;2022-11-15T02:00:42;7.90;99.90
47350;DHT22;33088;51.982;5.872;2022-11-15T02:03:44;7.90;99.90
47350;DHT22;33088;51.982;5.872;2022-11-15T02:06:30;7.90;99.90
47350;DHT22;33088;51.982;5.872;2022-11-15T02:09:15;7.90;99.90
47350;DHT22;33088;51.982;5.872;2022-11-15T02:12:00;7.90;99.90
47350;DHT22;33088;51.982;5.872;2022-11-15T02:14:48;8.00;99.90
47350;DHT22;33088;51.982;5.872;2022-11-15T02:20:52;8.00;99.90
47350;DHT22;33088;51.982;5.872;2022-11-15T02:27:05;8.10;99.90
47350;DHT22;33088;51.982;5.872;2022-11-15T02:41:22;8.20;99.90
47350;DHT22;33088;51.982;5.872;2022-11-15T02:44:21;8.30;99.90
47350;DHT22;33088;51.982;5.872;2022-11-15T02:47:11;8.30;99.90
47350;DHT22;33088;51.982;5.872;2022-11-15T02:50:00;8.30;99.90
47350;DHT22;33088;51.982;5.872;2022-11-15T02:52:46;8.30;99.90
47350;DHT22;33088;51.982;5.872;2022-11-15T02:55:33;8.40;99.90
47350;DHT22;33088;51.982;5.872;2022-11-15T03:01:39;8.40;99.90
47350;DHT22;33088;51.982;5.872;2022-11-15T03:20:03;8.70;99.90
47350;DHT22;33088;51.982;5.872;2022-11-15T03:22:48;8.80;99.90
47350;DHT22;33088;51.982;5.872;2022-11-15T03:25:34;8.70;99.90
47350;DHT22;33088;51.982;5.872;2022-11-15T03:28:25;8.80;99.90
47350;DHT22;33088;51.982;5.872;2022-11-15T03:31:14;8.80;99.90
47350;DHT22;33088;51.982;5.872;2022-11-15T03:37:06;9.10;99.90
47350;DHT22;33088;51.982;5.872;2022-11-15T03:39:51;8.80;99.90
47350;DHT22;33088;51.982;5.872;2022-11-15T03:42:51;8.90;99.90
47350;DHT22;33088;51.982;5.872;2022-11-15T03:45:48;9.00;99.90
47350;DHT22;33088;51.982;5.872;2022-11-15T03:48:39;9.00;99.90
47350;DHT22;33088;51.982;5.872;2022-11-15T03:51:25;9.20;99.90
47350;DHT22;33088;51.982;5.872;2022-11-15T03:54:12;9.20;99.90
47350;DHT22;33088;51.982;5.872;2022-11-15T03:56:57;9.30;99.90
47350;DHT22;33088;51.982;5.872;2022-11-15T03:59:41;9.30;99.90
47350;DHT22;33088;51.982;5.872;2022-11-15T04:02:25;9.30;99.90
47350;DHT22;33088;51.982;5.872;2022-11-15T04:05:09;9.30;99.90
47350;DHT22;33088;51.982;5.872;2022-11-15T04:07:53;9.40;99.90
47350;DHT22;33088;51.982;5.872;2022-11-15T04:10:37;9.50;99.90
47350;DHT22;33088;51.982;5.872;2022-11-15T04:13:21;9.50;99.90
47350;DHT22;33088;51.982;5.872;2022-11-15T04:16:05;9.50;99.90
47350;DHT22;33088;51.982;5.872;2022-11-15T04:18:49;9.60;99.90
47350;DHT22;33088;51.982;5.872;2022-11-15T04:21:53;9.70;99.90
47350;DHT22;33088;51.982;5.872;2022-11-15T04:24:56;9.70;99.90
47350;DHT22;33088;51.982;5.872;2022-11-15T04:27:40;9.80;99.90
47350;DHT22;33088;51.982;5.872;2022-11-15T04:30:24;10.10;99.90
47350;DHT22;33088;51.982;5.872;2022-11-15T04:33:09;9.80;99.90
47350;DHT22;33088;51.982;5.872;2022-11-15T04:35:53;9.90;99.90
47350;DHT22;33088;51.982;5.872;2022-11-15T04:38:55;9.80;99.90
47350;DHT22;33088;51.982;5.872;2022-11-15T04:41:40;9.80;99.90
47350;DHT22;33088;51.982;5.872;2022-11-15T04:44:24;9.80;99.90
47350;DHT22;33088;51.982;5.872;2022-11-15T04:47:08;9.80;99.90
47350;DHT22;33088;51.982;5.872;2022-11-15T04:49:52;9.80;99.90
47350;DHT22;33088;51.982;5.872;2022-11-15T04:52:36;9.90;99.90
47350;DHT22;33088;51.982;5.872;2022-11-15T04:55:20;9.80;99.90
47350;DHT22;33088;51.982;5.872;2022-11-15T04:58:05;9.80;99.90
47350;DHT22;33088;51.982;5.872;2022-11-15T05:00:49;9.80;99.90
47350;DHT22;33088;51.982;5.872;2022-11-15T05:03:33;10.00;99.90
47350;DHT22;33088;51.982;5.872;2022-11-15T05:06:36;10.20;99.90
47350;DHT22;33088;51.982;5.872;2022-11-15T05:09:20;10.00;99.90
47350;DHT22;33088;51.982;5.872;2022-11-15T05:12:05;10.00;99.90
47350;DHT22;33088;51.982;5.872;2022-11-15T05:14:49;10.00;99.90
47350;DHT22;33088;51.982;5.872;2022-11-15T05:17:33;10.00;99.90
47350;DHT22;33088;51.982;5.872;2022-11-15T05:20:18;10.00;99.90
47350;DHT22;33088;51.982;5.872;2022-11-15T05:23:02;10.00;99.90
47350;DHT22;33088;51.982;5.872;2022-11-15T05:25:46;10.00;99.90
47350;DHT22;33088;51.982;5.872;2022-11-15T05:28:31;10.00;99.90
47350;DHT22;33088;51.982;5.872;2022-11-15T05:31:16;10.00;99.90
47350;DHT22;33088;51.982;5.872;2022-11-15T05:34:00;10.00;99.90
47350;DHT22;33088;51.982;5.872;2022-11-15T05:36:46;10.10;99.90
47350;DHT22;33088;51.982;5.872;2022-11-15T05:39:31;10.00;99.90
47350;DHT22;33088;51.982;5.872;2022-11-15T05:42:15;10.10;99.90
47350;DHT22;33088;51.982;5.872;2022-11-15T05:45:02;10.20;99.90
47350;DHT22;33088;51.982;5.872;2022-11-15T05:47:47;10.20;99.90
47350;DHT22;33088;51.982;5.872;2022-11-15T05:50:32;10.20;99.90
47350;DHT22;33088;51.982;5.872;2022-11-15T05:53:19;10.20;99.90
47350;DHT22;33088;51.982;5.872;2022-11-15T05:56:05;10.10;99.90
47350;DHT22;33088;51.982;5.872;2022-11-15T05:58:53;10.20;99.90
47350;DHT22;33088;51.982;5.872;2022-11-15T06:01:38;10.20;99.90
47350;DHT22;33088;51.982;5.872;2022-11-15T06:04:23;10.20;99.90
47350;DHT22;33088;51.982;5.872;2022-11-15T06:07:07;10.30;99.90
47350;DHT22;33088;51.982;5.872;2022-11-15T06:09:51;10.30;99.90
47350;DHT22;33088;51.982;5.872;2022-11-15T06:12:35;10.20;99.90
47350;DHT22;33088;51.982;5.872;2022-11-15T06:15:19;10.30;99.90
47350;DHT22;33088;51.982;5.872;2022-11-15T06:18:03;10.30;99.90
47350;DHT22;33088;51.982;5.872;2022-11-15T06:20:48;10.30;99.90
47350;DHT22;33088;51.982;5.872;2022-11-15T06:23:33;10.30;99.90
47350;DHT22;33088;51.982;5.872;2022-11-15T06:26:17;10.30;99.90
47350;DHT22;33088;51.982;5.872;2022-11-15T06:29:03;10.30;99.90
47350;DHT22;33088;51.982;5.872;2022-11-15T06:31:48;10.30;99.90
47350;DHT22;33088;51.982;5.872;2022-11-15T06:34:33;10.30;99.90
47350;DHT22;33088;51.982;5.872;2022-11-15T06:37:17;10.30;99.90
47350;DHT22;33088;51.982;5.872;2022-11-15T06:40:01;10.30;99.90
47350;DHT22;33088;51.982;5.872;2022-11-15T06:42:45;10.30;99.90
47350;DHT22;33088;51.982;5.872;2022-11-15T06:45:29;10.20;99.90
47350;DHT22;33088;51.982;5.872;2022-11-15T06:48:14;10.20;99.90
47350;DHT22;33088;51.982;5.872;2022-11-15T06:51:00;10.20;99.90
47350;DHT22;33088;51.982;5.872;2022-11-15T06:53:45;10.20;99.90
47350;DHT22;33088;51.982;5.872;2022-11-15T06:56:29;10.30;99.90
47350;DHT22;33088;51.982;5.872;2022-11-15T06:59:14;10.30;99.90
47350;DHT22;33088;51.982;5.872;2022-11-15T07:01:58;10.40;99.90
47350;DHT22;33088;51.982;5.872;2022-11-15T07:04:42;10.30;99.90
47350;DHT22;33088;51.982;5.872;2022-11-15T07:07:26;10.30;99.90
47350;DHT22;33088;51.982;5.872;2022-11-15T07:10:10;10.30;99.90
47350;DHT22;33088;51.982;5.872;2022-11-15T07:12:55;10.20;99.90
47350;DHT22;33088;51.982;5.872;2022-11-15T07:15:39;10.20;99.90
47350;DHT22;33088;51.982;5.872;2022-11-15T07:18:23;10.20;99.90
47350;DHT22;33088;51.982;5.872;2022-11-15T07:21:09;10.50;99.90
47350;DHT22;33088;51.982;5.872;2022-11-15T07:23:54;10.30;99.90
47350;DHT22;33088;51.982;5.872;2022-11-15T07:26:39;10.30;99.90
47350;DHT22;33088;51.982;5.872;2022-11-15T07:29:23;10.30;99.90
47350;DHT22;33088;51.982;5.872;2022-11-15T07:32:07;10.20;99.90
47350;DHT22;33088;51.982;5.872;2022-11-15T07:34:51;10.20;99.90
47350;DHT22;33088;51.982;5.872;2022-11-15T07:37:36;10.30;99.90
47350;DHT22;33088;51.982;5.872;2022-11-15T07:40:20;10.30;99.90
47350;DHT22;33088;51.982;5.872;2022-11-15T07:43:07;10.30;99.90
47350;DHT22;33088;51.982;5.872;2022-11-15T07:45:52;10.30;99.90
47350;DHT22;33088;51.982;5.872;2022-11-15T07:48:38;10.30;99.90
47350;DHT22;33088;51.982;5.872;2022-11-15T07:51:23;10.30;99.90
47350;DHT22;33088;51.982;5.872;2022-11-15T07:54:07;10.40;99.90
47350;DHT22;33088;51.982;5.872;2022-11-15T07:56:51;10.30;99.90
47350;DHT22;33088;51.982;5.872;2022-11-15T07:59:35;10.30;99.90
47350;DHT22;33088;51.982;5.872;2022-11-15T08:02:20;10.50;99.90
47350;DHT22;33088;51.982;5.872;2022-11-15T08:05:05;10.50;99.90
47350;DHT22;33088;51.982;5.872;2022-11-15T08:07:49;10.50;99.90
47350;DHT22;33088;51.982;5.872;2022-11-15T08:10:34;10.50;99.90
47350;DHT22;33088;51.982;5.872;2022-11-15T08:13:18;10.50;99.90
47350;DHT22;33088;51.982;5.872;2022-11-15T08:16:03;10.50;99.90
47350;DHT22;33088;51.982;5.872;2022-11-15T08:18:49;10.60;99.90
47350;DHT22;33088;51.982;5.872;2022-11-15T08:21:33;10.70;99.90
47350;DHT22;33088;51.982;5.872;2022-11-15T08:24:17;10.70;99.90
47350;DHT22;33088;51.982;5.872;2022-11-15T08:27:01;10.70;99.90
47350;DHT22;33088;51.982;5.872;2022-11-15T08:29:48;10.60;99.90
47350;DHT22;33088;51.982;5.872;2022-11-15T08:32:32;10.60;99.90
47350;DHT22;33088;51.982;5.872;2022-11-15T08:35:17;10.60;99.90
47350;DHT22;33088;51.982;5.872;2022-11-15T08:38:01;10.70;99.90
47350;DHT22;33088;51.982;5.872;2022-11-15T08:40:45;10.90;99.90
47350;DHT22;33088;51.982;5.872;2022-11-15T08:43:30;10.80;99.90
47350;DHT22;33088;51.982;5.872;2022-11-15T08:46:14;10.80;99.90
47350;DHT22;33088;51.982;5.872;2022-11-15T08:48:59;10.80;99.90
47350;DHT22;33088;51.982;5.872;2022-11-15T08:51:43;10.80;99.90
47350;DHT22;33088;51.982;5.872;2022-11-15T08:54:27;10.80;99.90
47350;DHT22;33088;51.982;5.872;2022-11-15T08:57:11;10.90;99.90
47350;DHT22;33088;51.982;5.872;2022-11-15T08:59:55;11.00;99.90
47350;DHT22;33088;51.982;5.872;2022-11-15T09:02:40;11.00;99.90
47350;DHT22;33088;51.982;5.872;2022-11-15T09:05:24;11.10;99.90
47350;DHT22;33088;51.982;5.872;2022-11-15T09:08:09;11.00;99.90
47350;DHT22;33088;51.982;5.872;2022-11-15T09:10:53;11.10;99.90
47350;DHT22;33088;51.982;5.872;2022-11-15T09:13:37;11.10;99.90
47350;DHT22;33088;51.982;5.872;2022-11-15T09:16:22;11.10;99.90
47350;DHT22;33088;51.982;5.872;2022-11-15T09:19:06;11.10;99.90
47350;DHT22;33088;51.982;5.872;2022-11-15T09:21:51;11.20;99.90
47350;DHT22;33088;51.982;5.872;2022-11-15T09:24:35;11.20;99.90
47350;DHT22;33088;51.982;5.872;2022-11-15T09:27:20;11.20;99.90
47350;DHT22;33088;51.982;5.872;2022-11-15T09:30:04;11.20;99.90
47350;DHT22;33088;51.982;5.872;2022-11-15T09:32:48;11.20;99.90
47350;DHT22;33088;51.982;5.872;2022-11-15T09:35:32;11.10;99.90
47350;DHT22;33088;51.982;5.872;2022-11-15T09:38:17;11.10;99.90
47350;DHT22;33088;51.982;5.872;2022-11-15T09:50:41;11.30;99.90
47350;DHT22;33088;51.982;5.872;2022-11-15T09:53:34;11.40;99.90
47350;DHT22;33088;51.982;5.872;2022-11-15T09:56:20;11.30;99.90
47350;DHT22;33088;51.982;5.872;2022-11-15T09:58:58;11.40;99.90
47350;DHT22;33088;51.982;5.872;2022-11-15T10:01:44;11.50;99.90
47350;DHT22;33088;51.982;5.872;2022-11-15T10:04:15;11.60;99.90
47350;DHT22;33088;51.982;5.872;2022-11-15T10:06:55;11.60;99.90
47350;DHT22;33088;51.982;5.872;2022-11-15T10:09:24;11.50;99.90
47350;DHT22;33088;51.982;5.872;2022-11-15T10:11:51;11.50;99.90
47350;DHT22;33088;51.982;5.872;2022-11-15T10:14:22;11.50;99.90
47350;DHT22;33088;51.982;5.872;2022-11-15T10:19:26;11.50;99.90
47350;DHT22;33088;51.982;5.872;2022-11-15T10:24:48;11.40;99.90
47350;DHT22;33088;51.982;5.872;2022-11-15T10:27:18;11.40;99.90
47350;DHT22;33088;51.982;5.872;2022-11-15T10:29:49;11.40;99.90
47350;DHT22;33088;51.982;5.872;2022-11-15T10:32:19;11.60;99.90
47350;DHT22;33088;51.982;5.872;2022-11-15T10:34:46;11.40;99.90
47350;DHT22;33088;51.982;5.872;2022-11-15T10:37:12;11.40;99.90
47350;DHT22;33088;51.982;5.872;2022-11-15T10:39:37;11.50;99.90
47350;DHT22;33088;51.982;5.872;2022-11-15T10:42:16;11.50;99.90
47350;DHT22;33088;51.982;5.872;2022-11-15T10:44:43;11.60;99.90
47350;DHT22;33088;51.982;5.872;2022-11-15T10:50:26;11.70;99.90
47350;DHT22;33088;51.982;5.872;2022-11-15T10:52:50;11.80;99.90
47350;DHT22;33088;51.982;5.872;2022-11-15T10:57:49;11.70;99.90
47350;DHT22;33088;51.982;5.872;2022-11-15T11:05:36;11.60;99.90
47350;DHT22;33088;51.982;5.872;2022-11-15T11:10:37;11.50;99.90
47350;DHT22;33088;51.982;5.872;2022-11-15T11:13:22;11.50;99.90
47350;DHT22;33088;51.982;5.872;2022-11-15T11:15:55;11.60;99.90
47350;DHT22;33088;51.982;5.872;2022-11-15T11:18:32;11.60;99.90
47350;DHT22;33088;51.982;5.872;2022-11-15T11:21:04;11.60;99.90
47350;DHT22;33088;51.982;5.872;2022-11-15T11:23:51;11.70;99.90
47350;DHT22;33088;51.982;5.872;2022-11-15T11:26:40;11.80;99.90
47350;DHT22;33088;51.982;5.872;2022-11-15T11:50:30;11.80;99.90
47350;DHT22;33088;51.982;5.872;2022-11-15T11:52:58;11.70;99.90
47350;DHT22;33088;51.982;5.872;2022-11-15T11:55:44;11.70;99.90
47350;DHT22;33088;51.982;5.872;2022-11-15T11:58:21;11.90;99.90
47350;DHT22;33088;51.982;5.872;2022-11-15T12:00:56;11.80;99.90
47350;DHT22;33088;51.982;5.872;2022-11-15T12:05:56;11.80;99.90
47350;DHT22;33088;51.982;5.872;2022-11-15T12:11:22;12.00;99.90
47350;DHT22;33088;51.982;5.872;2022-11-15T12:13:56;12.20;99.90
47350;DHT22;33088;51.982;5.872;2022-11-15T12:16:28;12.10;99.90
47350;DHT22;33088;51.982;5.872;2022-11-15T12:18:57;12.10;99.90
47350;DHT22;33088;51.982;5.872;2022-11-15T12:21:51;12.20;99.90
47350;DHT22;33088;51.982;5.872;2022-11-15T12:24:31;12.20;99.90
47350;DHT22;33088;51.982;5.872;2022-11-15T12:27:31;12.10;99.90
47350;DHT22;33088;51.982;5.872;2022-11-15T12:30:11;12.10;99.90
47350;DHT22;33088;51.982;5.872;2022-11-15T12:32:39;12.00;99.90
47350;DHT22;33088;51.982;5.872;2022-11-15T12:35:21;12.00;99.90
47350;DHT22;33088;51.982;5.872;2022-11-15T12:37:50;12.00;99.90
47350;DHT22;33088;51.982;5.872;2022-11-15T12:45:42;12.00;99.90
47350;DHT22;33088;51.982;5.872;2022-11-15T12:58:38;12.10;99.90
47350;DHT22;33088;51.982;5.872;2022-11-15T13:01:10;12.10;99.90
47350;DHT22;33088;51.982;5.872;2022-11-15T13:06:43;12.10;99.90
47350;DHT22;33088;51.982;5.872;2022-11-15T13:17:51;12.10;99.90
47350;DHT22;33088;51.982;5.872;2022-11-15T13:28:45;12.10;99.90
47350;DHT22;33088;51.982;5.872;2022-11-15T13:31:24;12.00;99.90
47350;DHT22;33088;51.982;5.872;2022-11-15T13:33:51;12.00;99.90
47350;DHT22;33088;51.982;5.872;2022-11-15T13:36:26;12.00;99.90
47350;DHT22;33088;51.982;5.872;2022-11-15T13:41:26;11.80;99.90
47350;DHT22;33088;51.982;5.872;2022-11-15T13:43:54;11.80;99.90
47350;DHT22;33088;51.982;5.872;2022-11-15T13:48:54;11.80;99.90
47350;DHT22;33088;51.982;5.872;2022-11-15T13:57:24;11.80;99.90
47350;DHT22;33088;51.982;5.872;2022-11-15T13:59:59;11.80;99.90
47350;DHT22;33088;51.982;5.872;2022-11-15T14:02:34;11.80;99.90
47350;DHT22;33088;51.982;5.872;2022-11-15T14:07:53;11.80;99.90
47350;DHT22;33088;51.982;5.872;2022-11-15T14:10:33;11.80;99.90
47350;DHT22;33088;51.982;5.872;2022-11-15T14:13:00;11.70;99.90
47350;DHT22;33088;51.982;5.872;2022-11-15T14:15:33;11.80;99.90
47350;DHT22;33088;51.982;5.872;2022-11-15T14:17:59;11.70;99.90
47350;DHT22;33088;51.982;5.872;2022-11-15T14:23:00;11.60;99.90
47350;DHT22;33088;51.982;5.872;2022-11-15T14:25:28;11.60;99.90
47350;DHT22;33088;51.982;5.872;2022-11-15T14:28:16;11.60;99.90
47350;DHT22;33088;51.982;5.872;2022-11-15T14:30:44;11.60;99.90
47350;DHT22;33088;51.982;5.872;2022-11-15T14:33:33;11.60;99.90
47350;DHT22;33088;51.982;5.872;2022-11-15T14:36:05;11.70;99.90
47350;DHT22;33088;51.982;5.872;2022-11-15T14:38:31;11.70;99.90
47350;DHT22;33088;51.982;5.872;2022-11-15T14:40:57;11.80;99.90
47350;DHT22;33088;51.982;5.872;2022-11-15T14:43:24;11.70;99.90
47350;DHT22;33088;51.982;5.872;2022-11-15T14:45:49;11.70;99.90
47350;DHT22;33088;51.982;5.872;2022-11-15T14:48:15;11.70;99.90
47350;DHT22;33088;51.982;5.872;2022-11-15T14:50:41;11.70;99.90
47350;DHT22;33088;51.982;5.872;2022-11-15T14:53:06;11.70;99.90
47350;DHT22;33088;51.982;5.872;2022-11-15T14:55:35;11.70;99.90
47350;DHT22;33088;51.982;5.872;2022-11-15T14:58:06;11.70;99.90
47350;DHT22;33088;51.982;5.872;2022-11-15T15:00:37;11.70;99.90
47350;DHT22;33088;51.982;5.872;2022-11-15T15:03:03;11.60;99.90
47350;DHT22;33088;51.982;5.872;2022-11-15T15:05:33;11.70;99.90
47350;DHT22;33088;51.982;5.872;2022-11-15T15:07:59;11.60;99.90
47350;DHT22;33088;51.982;5.872;2022-11-15T15:10:30;11.60;99.90
47350;DHT22;33088;51.982;5.872;2022-11-15T15:12:56;11.70;99.90
47350;DHT22;33088;51.982;5.872;2022-11-15T15:15:24;11.40;99.90
47350;DHT22;33088;51.982;5.872;2022-11-15T15:17:50;11.50;99.90
47350;DHT22;33088;51.982;5.872;2022-11-15T15:20:16;11.50;99.90
47350;DHT22;33088;51.982;5.872;2022-11-15T15:22:42;11.50;99.90
47350;DHT22;33088;51.982;5.872;2022-11-15T15:25:23;11.50;99.90
47350;DHT22;33088;51.982;5.872;2022-11-15T15:27:52;11.60;99.90
47350;DHT22;33088;51.982;5.872;2022-11-15T15:30:18;11.60;99.90
47350;DHT22;33088;51.982;5.872;2022-11-15T15:32:44;11.50;99.90
47350;DHT22;33088;51.982;5.872;2022-11-15T15:35:15;11.60;99.90
47350;DHT22;33088;51.982;5.872;2022-11-15T15:37:42;11.60;99.90
47350;DHT22;33088;51.982;5.872;2022-11-15T15:40:13;11.60;99.90
47350;DHT22;33088;51.982;5.872;2022-11-15T15:42:39;11.60;99.90
47350;DHT22;33088;51.982;5.872;2022-11-15T15:45:05;11.60;99.90
47350;DHT22;33088;51.982;5.872;2022-11-15T15:47:30;11.50;99.90
47350;DHT22;33088;51.982;5.872;2022-11-15T15:49:56;11.70;99.90
47350;DHT22;33088;51.982;5.872;2022-11-15T15:52:21;11.50;99.90
47350;DHT22;33088;51.982;5.872;2022-11-15T15:54:47;11.50;99.90
47350;DHT22;33088;51.982;5.872;2022-11-15T15:57:13;11.50;99.90
47350;DHT22;33088;51.982;5.872;2022-11-15T15:59:40;11.50;99.90
47350;DHT22;33088;51.982;5.872;2022-11-15T16:02:06;11.50;99.90
47350;DHT22;33088;51.982;5.872;2022-11-15T16:04:34;11.40;99.90
47350;DHT22;33088;51.982;5.872;2022-11-15T16:07:00;11.40;99.90
47350;DHT22;33088;51.982;5.872;2022-11-15T16:09:26;11.50;99.90
47350;DHT22;33088;51.982;5.872;2022-11-15T16:12:10;11.40;99.90
47350;DHT22;33088;51.982;5.872;2022-11-15T16:14:36;11.40;99.90
47350;DHT22;33088;51.982;5.872;2022-11-15T16:17:02;11.40;99.90
47350;DHT22;33088;51.982;5.872;2022-11-15T16:19:28;11.40;99.90
47350;DHT22;33088;51.982;5.872;2022-11-15T16:21:54;11.40;99.90
47350;DHT22;33088;51.982;5.872;2022-11-15T16:24:20;11.50;99.90
47350;DHT22;33088;51.982;5.872;2022-11-15T16:26:47;11.60;99.90
47350;DHT22;33088;51.982;5.872;2022-11-15T16:29:13;11.60;99.90
47350;DHT22;33088;51.982;5.872;2022-11-15T16:31:39;11.70;99.90
47350;DHT22;33088;51.982;5.872;2022-11-15T16:34:05;11.70;99.90
47350;DHT22;33088;51.982;5.872;2022-11-15T16:36:33;11.70;99.90
47350;DHT22;33088;51.982;5.872;2022-11-15T16:39:00;11.70;99.90
47350;DHT22;33088;51.982;5.872;2022-11-15T16:41:29;11.70;99.90
47350;DHT22;33088;51.982;5.872;2022-11-15T16:43:55;11.70;99.90
47350;DHT22;33088;51.982;5.872;2022-11-15T16:46:25;11.70;99.90
47350;DHT22;33088;51.982;5.872;2022-11-15T16:48:52;11.70;99.90
47350;DHT22;33088;51.982;5.872;2022-11-15T16:51:19;11.80;99.90
47350;DHT22;33088;51.982;5.872;2022-11-15T16:53:45;11.80;99.90
47350;DHT22;33088;51.982;5.872;2022-11-15T16:58:46;11.80;99.90
47350;DHT22;33088;51.982;5.872;2022-11-15T17:01:21;11.80;99.90
47350;DHT22;33088;51.982;5.872;2022-11-15T17:03:48;11.80;99.90
47350;DHT22;33088;51.982;5.872;2022-11-15T17:06:14;11.80;99.90
47350;DHT22;33088;51.982;5.872;2022-11-15T17:08:40;11.80;99.90
47350;DHT22;33088;51.982;5.872;2022-11-15T17:11:06;11.80;99.90
47350;DHT22;33088;51.982;5.872;2022-11-15T17:13:32;11.80;99.90
47350;DHT22;33088;51.982;5.872;2022-11-15T17:16:09;11.80;99.90
47350;DHT22;33088;51.982;5.872;2022-11-15T17:18:36;11.80;99.90
47350;DHT22;33088;51.982;5.872;2022-11-15T17:21:06;11.80;99.90
47350;DHT22;33088;51.982;5.872;2022-11-15T17:23:33;11.80;99.90
47350;DHT22;33088;51.982;5.872;2022-11-15T17:26:02;11.80;99.90
47350;DHT22;33088;51.982;5.872;2022-11-15T17:28:31;11.90;99.90
47350;DHT22;33088;51.982;5.872;2022-11-15T17:30:57;11.80;99.90
47350;DHT22;33088;51.982;5.872;2022-11-15T17:33:23;11.90;99.90
47350;DHT22;33088;51.982;5.872;2022-11-15T17:35:56;11.80;99.90
47350;DHT22;33088;51.982;5.872;2022-11-15T17:38:22;11.90;99.90
47350;DHT22;33088;51.982;5.872;2022-11-15T17:40:48;11.80;99.90
47350;DHT22;33088;51.982;5.872;2022-11-15T17:43:13;11.80;99.90
47350;DHT22;33088;51.982;5.872;2022-11-15T17:45:41;11.80;99.90
47350;DHT22;33088;51.982;5.872;2022-11-15T17:48:06;11.80;99.90
47350;DHT22;33088;51.982;5.872;2022-11-15T17:50:32;11.70;99.90
47350;DHT22;33088;51.982;5.872;2022-11-15T17:52:58;11.70;99.90
47350;DHT22;33088;51.982;5.872;2022-11-15T17:55:24;11.70;99.90
47350;DHT22;33088;51.982;5.872;2022-11-15T17:57:50;11.70;99.90
47350;DHT22;33088;51.982;5.872;2022-11-15T18:00:16;11.60;99.90
47350;DHT22;33088;51.982;5.872;2022-11-15T18:02:45;11.70;99.90
47350;DHT22;33088;51.982;5.872;2022-11-15T18:05:10;11.70;99.90
47350;DHT22;33088;51.982;5.872;2022-11-15T18:07:36;11.70;99.90
47350;DHT22;33088;51.982;5.872;2022-11-15T18:10:02;11.70;99.90
47350;DHT22;33088;51.982;5.872;2022-11-15T18:12:28;11.60;99.90
47350;DHT22;33088;51.982;5.872;2022-11-15T18:14:53;11.70;99.90
47350;DHT22;33088;51.982;5.872;2022-11-15T18:17:19;11.60;99.90
47350;DHT22;33088;51.982;5.872;2022-11-15T18:19:45;11.60;99.90
47350;DHT22;33088;51.982;5.872;2022-11-15T18:22:10;11.50;99.90
47350;DHT22;33088;51.982;5.872;2022-11-15T18:24:36;11.50;99.90
47350;DHT22;33088;51.982;5.872;2022-11-15T18:27:07;11.40;99.90
47350;DHT22;33088;51.982;5.872;2022-11-15T18:29:33;11.30;99.90
47350;DHT22;33088;51.982;5.872;2022-11-15T18:32:02;11.30;99.90
47350;DHT22;33088;51.982;5.872;2022-11-15T18:34:31;11.30;99.90
47350;DHT22;33088;51.982;5.872;2022-11-15T18:36:59;11.20;99.90
47350;DHT22;33088;51.982;5.872;2022-11-15T18:39:25;11.20;99.90
47350;DHT22;33088;51.982;5.872;2022-11-15T18:41:51;11.20;99.90
47350;DHT22;33088;51.982;5.872;2022-11-15T18:44:17;11.10;99.90
47350;DHT22;33088;51.982;5.872;2022-11-15T18:46:43;11.20;99.90
47350;DHT22;33088;51.982;5.872;2022-11-15T18:49:13;11.10;99.90
47350;DHT22;33088;51.982;5.872;2022-11-15T18:51:39;11.10;99.90
47350;DHT22;33088;51.982;5.872;2022-11-15T18:54:11;11.10;99.90
47350;DHT22;33088;51.982;5.872;2022-11-15T18:56:37;11.10;99.90
47350;DHT22;33088;51.982;5.872;2022-11-15T18:59:03;11.20;99.90
47350;DHT22;33088;51.982;5.872;2022-11-15T19:01:37;11.10;99.90
47350;DHT22;33088;51.982;5.872;2022-11-15T19:04:08;11.10;99.90
47350;DHT22;33088;51.982;5.872;2022-11-15T19:06:39;11.00;99.90
47350;DHT22;33088;51.982;5.872;2022-11-15T19:09:07;11.10;99.90
47350;DHT22;33088;51.982;5.872;2022-11-15T19:11:34;11.00;99.90
47350;DHT22;33088;51.982;5.872;2022-11-15T19:14:03;11.00;99.90
47350;DHT22;33088;51.982;5.872;2022-11-15T19:16:31;11.00;99.90
47350;DHT22;33088;51.982;5.872;2022-11-15T19:18:59;10.90;99.90